Details From MNMG - Managua Intl
To MGPB - PUERTO BARRIOS
Flight Number -
Tags decoded
Created
Modified
Stats Distance 324 nm / 599 km
Max Altitude 0 ft / 0 m
Waypoints 9
Social Downloads 3
Likes 0
Share VATSIM

Download

Looking for another format? Having issues loading an existing format? Contact us
Advertisement - Login to hide

Notes

Requested: MNMG BERTA LIBIS TNT LEPAX NAGEL URNOS PENRU MGPB

Route

MNMG BERTA LIBIS TNT LEPAX NAGEL URNOS PENRU MGPB

ID Type Via Altitude Latitude Longitude Leg Dist Tot Dist Heading (true) Name
O MNMG APT - 0 ft / 0 m 12.14149˚ -86.16818˚ - 0 nm - Managua Intl
BERTA FIX - 0 ft / 0 m 12.95000˚ -86.77333˚ 60 nm 60 nm 324° / 324° -
LIBIS FIX - 0 ft / 0 m 13.61333˚ -87.26667˚ 49 nm 109 nm 324° / 324° -
TNT VOR - 0 ft / 0 m 14.02889˚ -87.22917˚ 25 nm 134 nm 5° / 5° TONCONTIN VOR-DME
LEPAX FIX - 0 ft / 0 m 14.10167˚ -87.65167˚ 24 nm 159 nm 280° / 280° -
NAGEL FIX - 0 ft / 0 m 14.26333˚ -88.59000˚ 55 nm 214 nm 280° / 280° -
URNOS FIX - 0 ft / 0 m 14.32500˚ -88.95500˚ 21 nm 236 nm 280° / 280° -
PENRU FIX - 0 ft / 0 m 15.19500˚ -88.73333˚ 53 nm 290 nm 14° / 14° -
O MGPB APT - 0 ft / 0 m 15.73087˚ -88.58377˚ 33 nm 323 nm 15° / 15° PUERTO BARRIOS

Altitude Profile

Advertisement - Login to hide

Weather


0- 5 10 15 20 25 30 35+ Temperature / ° C

Clouds and Precipitation
Forecast for 2018-05-26 18:00 UTC. Updated 40 minutes ago

Ground ~20,000 ft ~40,000 ft Winds

MNMG

Details ICAO MNMG (MGA)
Name Managua Intl
Region Nicaragua
Timezone America/Managua (UTC-6.0)
Stats Elevation 194 ft / 59 m (AMSL)
Location 12.141493° -86.168178°
Runways 1
Magnetic Variation 1.009° W

METAR

MNMG 261800Z 09004KT 9000 SCT022 SCT070 28/24 Q1010 A2983 HZ NOSIG

Decode

TAF

Not found

Departure Runways

ID Width Length Bearing (true) Bearing (mag) Surface Threshold Offset Overrun Length
09 148 ft / 45 m 8,008 ft / 2,441 m 96.54° 97.55° Asphalt 0 ft / 0 m 100 ft / 30 m
27 148 ft / 45 m 8,008 ft / 2,441 m 276.55° 277.56° Asphalt 0 ft / 0 m 100 ft / 30 m

MGPB

Details ICAO MGPB (PBR)
Name PUERTO BARRIOS
Region Guatemala
Timezone America/Guatemala (UTC-6.0)
Stats Elevation 33 ft / 10 m (AMSL)
Location 15.730872° -88.583765°
Runways 1
Magnetic Variation 0.206° W

METAR

MGPB 261800Z 30008KT 9999 FEW020 SCT090 32/25 Q1009 A2980

Decode

TAF

TAF MGPB 261700Z 2618/2718 06008KT 9999 SCT018 SCT090 TX33/2620Z TN24/2712Z TEMPO 2619/2710 8000 TSRA SCT020TCU FEW025CB BECMG 2701/2703 00000KT BKN016 TEMPO 2710/2715 FEW016 BECMG 2715/2717 06008KT SCT018

Decode

Destination Runways

ID Width Length Bearing (true) Bearing (mag) Surface Threshold Offset Overrun Length
12 110 ft / 34 m 8,861 ft / 2,701 m 127.91° 128.12° Concrete 0 ft / 0 m 0 ft / 0 m
30 110 ft / 34 m 8,861 ft / 2,701 m 307.92° 308.13° Concrete 0 ft / 0 m 0 ft / 0 m

Popular Alternatives